Southgate, MI (48195)

22:10 EST 8. Únor 2016 (GMT -0500)
Southgate | | Change Station
CLOSE
Current Station
Osobní povětrnostní stanice
Location: Southgate, MI
Nadmořská výška: 587 ft
Poblíž povětrnostní stanice

Výška 587 ft 42.21 °N, 83.19 °W | Updated 11 minutes ago

Zataženo
Zataženo
35.7 °F
Pocit jako 29 °F
S
8.0
Vítr proměnlivý Vítr od západní
Gusts 10.0 mil/h

Dnes
Vysoké -- | Nízké -- °F
--% Možnost srážek
Včera
Vysoké -- | Nízké -- °F
Precip. -- inčů
Tlak 29.61 inčů
Viditelnost 10.0 mílí
Zataženo Nemnoho 5000 ft
Zataženo 8000 ft
Ochlazování větrem 29 °F
Rosný bod 32 °F
Vlhkost 85%
Dešťové srážky 0.00 inčů
Sněhová pokrývka Není k dispozici
7:38 AM 5:55 PM
Nový měsíc, 0% visible
METAR KDTW 090253Z 27007KT 10SM FEW050 OVC080 02/M02 A2959 RMK AO2 SLP026 60000 T00171022 58005
Tlak 29.61 inčů
Viditelnost 10.0 mílí
Zataženo Nemnoho 5000 ft
Zataženo 8000 ft
Ochlazování větrem 29 °F
Rosný bod 32 °F
Vlhkost 85%
Dešťové srážky 0.00 inčů
Sněhová pokrývka Není k dispozici
7:38 AM 5:55 PM
Nový měsíc, 0% visible
METAR KDTW 090253Z 27007KT 10SM FEW050 OVC080 02/M02 A2959 RMK AO2 SLP026 60000 T00171022 58005

10-Day Weather Forecast

Almanac

Astronomie

Feb. 08, 2016 Východ Západ
Skutečný čas
Občanský soumrak
Námořní soumrak
Astronomický soumrak
Měsíc
Délka denního světla
Délka dne
Tomorrow will be .
, % of the Moon is Illuminated

Dnešní extrémy

State Highs State Lows

Community

WunderPhotos

Upload Photos

1,891,527 snímků staženo!

WunderBlog® & News

Nearby

Kvalita ovzduší

  Kvalita ovzduší Index kvality ovzduší Polutant
Not available.

Výška sněhu

Station Hloubka Nadmořská výška

Seizmická činnost

Město Distance Mag. Čas & datum
Minimální zobrazený rozsah je 2.5.

Pobřežní teplota vody

Lokalita Teplota

Stations

Poblíž povětrnostní stanice

Lokace stanice Tepl. Ochlazování větrem Rosný bod Vlhkost Vítr Precip. Výška Čas hlášení Typ
                   

Watches & Warnings

There are currently no watches in effect.